sensor_id;sensor_type;location;lat;lon;timestamp;temperature;humidity
28763;DHT22;15918;51.270;6.522;2024-01-11T00:00:59;2.50;55.00
28763;DHT22;15918;51.270;6.522;2024-01-11T00:03:24;2.50;55.10
28763;DHT22;15918;51.270;6.522;2024-01-11T00:05:50;2.50;55.20
28763;DHT22;15918;51.270;6.522;2024-01-11T00:08:16;2.50;55.20
28763;DHT22;15918;51.270;6.522;2024-01-11T00:10:41;2.50;55.20
28763;DHT22;15918;51.270;6.522;2024-01-11T00:13:07;2.50;55.20
28763;DHT22;15918;51.270;6.522;2024-01-11T00:15:33;2.50;55.20
28763;DHT22;15918;51.270;6.522;2024-01-11T00:17:58;2.50;55.20
28763;DHT22;15918;51.270;6.522;2024-01-11T00:20:24;2.50;55.20
28763;DHT22;15918;51.270;6.522;2024-01-11T00:22:49;2.50;55.20
28763;DHT22;15918;51.270;6.522;2024-01-11T00:25:15;2.50;55.20
28763;DHT22;15918;51.270;6.522;2024-01-11T00:27:41;2.50;55.30
28763;DHT22;15918;51.270;6.522;2024-01-11T00:30:07;2.50;55.30
28763;DHT22;15918;51.270;6.522;2024-01-11T00:32:33;2.50;55.40
28763;DHT22;15918;51.270;6.522;2024-01-11T00:34:58;2.50;55.40
28763;DHT22;15918;51.270;6.522;2024-01-11T00:37:24;2.50;55.40
28763;DHT22;15918;51.270;6.522;2024-01-11T00:39:50;2.50;55.40
28763;DHT22;15918;51.270;6.522;2024-01-11T00:42:16;2.50;55.40
28763;DHT22;15918;51.270;6.522;2024-01-11T00:44:41;2.50;55.40
28763;DHT22;15918;51.270;6.522;2024-01-11T00:47:07;2.50;55.40
28763;DHT22;15918;51.270;6.522;2024-01-11T00:49:32;2.50;55.40
28763;DHT22;15918;51.270;6.522;2024-01-11T00:51:58;2.50;55.40
28763;DHT22;15918;51.270;6.522;2024-01-11T00:54:23;2.50;55.50
28763;DHT22;15918;51.270;6.522;2024-01-11T00:56:50;2.40;55.40
28763;DHT22;15918;51.270;6.522;2024-01-11T00:59:15;2.50;56.00
28763;DHT22;15918;51.270;6.522;2024-01-11T01:01:47;2.50;55.50
28763;DHT22;15918;51.270;6.522;2024-01-11T01:04:13;2.50;55.40
28763;DHT22;15918;51.270;6.522;2024-01-11T01:06:38;2.50;55.50
28763;DHT22;15918;51.270;6.522;2024-01-11T01:09:04;2.50;55.50
28763;DHT22;15918;51.270;6.522;2024-01-11T01:11:30;2.50;55.50
28763;DHT22;15918;51.270;6.522;2024-01-11T01:13:55;2.50;55.50
28763;DHT22;15918;51.270;6.522;2024-01-11T01:16:21;2.50;55.50
28763;DHT22;15918;51.270;6.522;2024-01-11T01:18:46;2.50;55.50
28763;DHT22;15918;51.270;6.522;2024-01-11T01:21:12;2.50;55.50
28763;DHT22;15918;51.270;6.522;2024-01-11T01:23:37;2.50;55.50
28763;DHT22;15918;51.270;6.522;2024-01-11T01:26:03;2.50;55.40
28763;DHT22;15918;51.270;6.522;2024-01-11T01:28:29;2.40;55.40
28763;DHT22;15918;51.270;6.522;2024-01-11T01:30:54;2.40;55.30
28763;DHT22;15918;51.270;6.522;2024-01-11T01:33:20;2.40;55.30
28763;DHT22;15918;51.270;6.522;2024-01-11T01:35:45;2.40;55.30
28763;DHT22;15918;51.270;6.522;2024-01-11T01:38:12;2.40;55.30
28763;DHT22;15918;51.270;6.522;2024-01-11T01:40:37;2.40;55.30
28763;DHT22;15918;51.270;6.522;2024-01-11T01:43:07;2.40;55.20
28763;DHT22;15918;51.270;6.522;2024-01-11T01:45:33;2.40;55.20
28763;DHT22;15918;51.270;6.522;2024-01-11T01:47:59;2.40;55.20
28763;DHT22;15918;51.270;6.522;2024-01-11T01:50:25;2.40;55.20
28763;DHT22;15918;51.270;6.522;2024-01-11T01:52:51;2.40;55.20
28763;DHT22;15918;51.270;6.522;2024-01-11T01:55:17;2.40;55.20
28763;DHT22;15918;51.270;6.522;2024-01-11T01:57:45;2.40;55.20
28763;DHT22;15918;51.270;6.522;2024-01-11T02:00:13;2.40;55.20
28763;DHT22;15918;51.270;6.522;2024-01-11T02:02:43;2.40;55.20
28763;DHT22;15918;51.270;6.522;2024-01-11T02:05:09;2.30;55.10
28763;DHT22;15918;51.270;6.522;2024-01-11T02:07:35;2.30;55.20
28763;DHT22;15918;51.270;6.522;2024-01-11T02:10:02;2.40;55.20
28763;DHT22;15918;51.270;6.522;2024-01-11T02:12:29;2.40;55.10
28763;DHT22;15918;51.270;6.522;2024-01-11T02:14:55;2.30;55.00
28763;DHT22;15918;51.270;6.522;2024-01-11T02:17:20;2.30;55.00
28763;DHT22;15918;51.270;6.522;2024-01-11T02:19:46;2.30;55.00
28763;DHT22;15918;51.270;6.522;2024-01-11T02:22:35;2.30;55.00
28763;DHT22;15918;51.270;6.522;2024-01-11T02:25:02;2.40;55.00
28763;DHT22;15918;51.270;6.522;2024-01-11T02:27:29;2.30;55.10
28763;DHT22;15918;51.270;6.522;2024-01-11T02:29:54;2.30;55.00
28763;DHT22;15918;51.270;6.522;2024-01-11T02:32:20;2.30;55.00
28763;DHT22;15918;51.270;6.522;2024-01-11T02:34:46;2.30;55.00
28763;DHT22;15918;51.270;6.522;2024-01-11T02:37:12;2.20;55.00
28763;DHT22;15918;51.270;6.522;2024-01-11T02:39:38;2.20;54.90
28763;DHT22;15918;51.270;6.522;2024-01-11T02:42:04;2.30;55.00
28763;DHT22;15918;51.270;6.522;2024-01-11T02:44:30;2.30;55.00
28763;DHT22;15918;51.270;6.522;2024-01-11T02:46:56;2.20;54.90
28763;DHT22;15918;51.270;6.522;2024-01-11T02:49:21;2.20;55.00
28763;DHT22;15918;51.270;6.522;2024-01-11T02:51:47;2.20;54.90
28763;DHT22;15918;51.270;6.522;2024-01-11T02:54:12;2.20;55.00
28763;DHT22;15918;51.270;6.522;2024-01-11T02:56:38;2.20;54.90
28763;DHT22;15918;51.270;6.522;2024-01-11T02:59:04;2.20;54.90
28763;DHT22;15918;51.270;6.522;2024-01-11T03:01:29;2.20;54.90
28763;DHT22;15918;51.270;6.522;2024-01-11T03:03:56;2.20;55.00
28763;DHT22;15918;51.270;6.522;2024-01-11T03:06:22;2.20;55.00
28763;DHT22;15918;51.270;6.522;2024-01-11T03:08:48;2.20;55.00
28763;DHT22;15918;51.270;6.522;2024-01-11T03:11:14;2.20;55.00
28763;DHT22;15918;51.270;6.522;2024-01-11T03:13:41;2.20;55.00
28763;DHT22;15918;51.270;6.522;2024-01-11T03:16:07;2.20;55.00
28763;DHT22;15918;51.270;6.522;2024-01-11T03:18:32;2.10;54.90
28763;DHT22;15918;51.270;6.522;2024-01-11T03:20:58;2.10;55.00
28763;DHT22;15918;51.270;6.522;2024-01-11T03:23:24;2.10;54.90
28763;DHT22;15918;51.270;6.522;2024-01-11T03:25:49;2.10;54.90
28763;DHT22;15918;51.270;6.522;2024-01-11T03:28:15;2.10;54.90
28763;DHT22;15918;51.270;6.522;2024-01-11T03:30:40;2.10;54.90
28763;DHT22;15918;51.270;6.522;2024-01-11T03:33:06;2.10;55.00
28763;DHT22;15918;51.270;6.522;2024-01-11T03:35:32;2.10;55.00
28763;DHT22;15918;51.270;6.522;2024-01-11T03:37:57;2.10;55.00
28763;DHT22;15918;51.270;6.522;2024-01-11T03:40:23;2.10;55.00
28763;DHT22;15918;51.270;6.522;2024-01-11T03:42:48;2.10;55.00
28763;DHT22;15918;51.270;6.522;2024-01-11T03:45:17;2.10;55.00
28763;DHT22;15918;51.270;6.522;2024-01-11T03:47:44;2.10;55.00
28763;DHT22;15918;51.270;6.522;2024-01-11T03:50:10;2.10;55.00
28763;DHT22;15918;51.270;6.522;2024-01-11T03:52:35;2.10;55.00
28763;DHT22;15918;51.270;6.522;2024-01-11T03:55:01;2.10;55.00
28763;DHT22;15918;51.270;6.522;2024-01-11T03:57:26;2.10;55.00
28763;DHT22;15918;51.270;6.522;2024-01-11T03:59:52;2.10;55.10
28763;DHT22;15918;51.270;6.522;2024-01-11T04:02:17;2.10;55.10
28763;DHT22;15918;51.270;6.522;2024-01-11T04:04:43;2.10;55.20
28763;DHT22;15918;51.270;6.522;2024-01-11T04:07:09;2.10;55.20
28763;DHT22;15918;51.270;6.522;2024-01-11T04:09:37;2.10;55.30
28763;DHT22;15918;51.270;6.522;2024-01-11T04:12:03;2.10;55.30
28763;DHT22;15918;51.270;6.522;2024-01-11T04:14:29;2.10;55.30
28763;DHT22;15918;51.270;6.522;2024-01-11T04:16:55;2.10;55.30
28763;DHT22;15918;51.270;6.522;2024-01-11T04:19:20;2.10;55.30
28763;DHT22;15918;51.270;6.522;2024-01-11T04:21:46;2.10;55.90
28763;DHT22;15918;51.270;6.522;2024-01-11T04:24:12;2.10;55.30
28763;DHT22;15918;51.270;6.522;2024-01-11T04:26:37;2.10;55.30
28763;DHT22;15918;51.270;6.522;2024-01-11T04:29:03;2.10;55.30
28763;DHT22;15918;51.270;6.522;2024-01-11T04:31:29;2.10;55.40
28763;DHT22;15918;51.270;6.522;2024-01-11T04:33:54;2.10;55.40
28763;DHT22;15918;51.270;6.522;2024-01-11T04:36:20;2.10;55.40
28763;DHT22;15918;51.270;6.522;2024-01-11T04:38:45;2.10;55.40
28763;DHT22;15918;51.270;6.522;2024-01-11T04:41:12;2.00;55.40
28763;DHT22;15918;51.270;6.522;2024-01-11T04:43:39;2.00;55.40
28763;DHT22;15918;51.270;6.522;2024-01-11T04:46:21;2.10;55.40
28763;DHT22;15918;51.270;6.522;2024-01-11T04:48:48;2.10;55.30
28763;DHT22;15918;51.270;6.522;2024-01-11T04:51:18;2.00;55.40
28763;DHT22;15918;51.270;6.522;2024-01-11T04:53:44;2.00;55.50
28763;DHT22;15918;51.270;6.522;2024-01-11T04:56:13;2.00;55.40
28763;DHT22;15918;51.270;6.522;2024-01-11T04:58:40;2.00;55.40
28763;DHT22;15918;51.270;6.522;2024-01-11T05:01:06;2.00;55.40
28763;DHT22;15918;51.270;6.522;2024-01-11T05:03:32;2.00;55.40
28763;DHT22;15918;51.270;6.522;2024-01-11T05:05:59;2.00;55.40
28763;DHT22;15918;51.270;6.522;2024-01-11T05:08:28;2.00;55.40
28763;DHT22;15918;51.270;6.522;2024-01-11T05:10:54;2.00;55.40
28763;DHT22;15918;51.270;6.522;2024-01-11T05:13:19;2.00;55.40
28763;DHT22;15918;51.270;6.522;2024-01-11T05:15:45;2.00;55.50
28763;DHT22;15918;51.270;6.522;2024-01-11T05:18:11;2.00;55.40
28763;DHT22;15918;51.270;6.522;2024-01-11T05:20:37;2.00;55.50
28763;DHT22;15918;51.270;6.522;2024-01-11T05:23:03;2.00;55.50
28763;DHT22;15918;51.270;6.522;2024-01-11T05:25:32;2.00;55.40
28763;DHT22;15918;51.270;6.522;2024-01-11T05:28:01;2.00;55.40
28763;DHT22;15918;51.270;6.522;2024-01-11T05:30:27;2.00;55.50
28763;DHT22;15918;51.270;6.522;2024-01-11T05:32:53;2.00;55.40
28763;DHT22;15918;51.270;6.522;2024-01-11T05:35:19;2.00;55.40
28763;DHT22;15918;51.270;6.522;2024-01-11T05:37:45;1.90;55.40
28763;DHT22;15918;51.270;6.522;2024-01-11T05:40:11;1.90;55.30
28763;DHT22;15918;51.270;6.522;2024-01-11T05:42:36;1.90;55.90
28763;DHT22;15918;51.270;6.522;2024-01-11T05:45:04;1.90;55.30
28763;DHT22;15918;51.270;6.522;2024-01-11T05:47:30;1.90;55.30
28763;DHT22;15918;51.270;6.522;2024-01-11T05:49:55;1.90;55.30
28763;DHT22;15918;51.270;6.522;2024-01-11T05:52:21;1.90;55.30
28763;DHT22;15918;51.270;6.522;2024-01-11T05:54:47;1.90;55.30
28763;DHT22;15918;51.270;6.522;2024-01-11T05:57:12;1.90;55.30
28763;DHT22;15918;51.270;6.522;2024-01-11T05:59:43;1.90;55.30
28763;DHT22;15918;51.270;6.522;2024-01-11T06:02:09;1.90;55.30
28763;DHT22;15918;51.270;6.522;2024-01-11T06:04:36;1.90;55.40
28763;DHT22;15918;51.270;6.522;2024-01-11T06:07:01;1.90;55.40
28763;DHT22;15918;51.270;6.522;2024-01-11T06:09:27;1.90;55.40
28763;DHT22;15918;51.270;6.522;2024-01-11T06:11:52;1.90;55.40
28763;DHT22;15918;51.270;6.522;2024-01-11T06:14:18;1.90;55.40
28763;DHT22;15918;51.270;6.522;2024-01-11T06:16:44;1.90;55.40
28763;DHT22;15918;51.270;6.522;2024-01-11T06:19:09;1.90;55.40
28763;DHT22;15918;51.270;6.522;2024-01-11T06:21:35;1.80;55.40
28763;DHT22;15918;51.270;6.522;2024-01-11T06:24:01;1.90;55.50
28763;DHT22;15918;51.270;6.522;2024-01-11T06:26:28;1.80;55.50
28763;DHT22;15918;51.270;6.522;2024-01-11T06:28:54;1.80;55.50
28763;DHT22;15918;51.270;6.522;2024-01-11T06:31:20;1.80;55.50
28763;DHT22;15918;51.270;6.522;2024-01-11T06:33:45;1.80;55.50
28763;DHT22;15918;51.270;6.522;2024-01-11T06:36:11;1.80;55.50
28763;DHT22;15918;51.270;6.522;2024-01-11T06:38:36;1.80;55.50
28763;DHT22;15918;51.270;6.522;2024-01-11T06:41:02;1.80;55.50
28763;DHT22;15918;51.270;6.522;2024-01-11T06:43:28;1.80;55.40
28763;DHT22;15918;51.270;6.522;2024-01-11T06:45:54;1.80;55.40
28763;DHT22;15918;51.270;6.522;2024-01-11T06:48:19;1.80;55.40
28763;DHT22;15918;51.270;6.522;2024-01-11T06:50:45;1.80;55.50
28763;DHT22;15918;51.270;6.522;2024-01-11T06:53:10;1.80;55.50
28763;DHT22;15918;51.270;6.522;2024-01-11T06:55:36;1.80;55.50
28763;DHT22;15918;51.270;6.522;2024-01-11T06:58:02;1.80;55.50
28763;DHT22;15918;51.270;6.522;2024-01-11T07:00:27;1.80;56.00
28763;DHT22;15918;51.270;6.522;2024-01-11T07:02:53;1.80;55.40
28763;DHT22;15918;51.270;6.522;2024-01-11T07:05:19;1.70;55.40
28763;DHT22;15918;51.270;6.522;2024-01-11T07:07:44;1.70;55.40
28763;DHT22;15918;51.270;6.522;2024-01-11T07:10:10;1.70;55.40
28763;DHT22;15918;51.270;6.522;2024-01-11T07:12:36;1.70;55.40
28763;DHT22;15918;51.270;6.522;2024-01-11T07:15:03;1.70;55.30
28763;DHT22;15918;51.270;6.522;2024-01-11T07:17:30;1.70;55.30
28763;DHT22;15918;51.270;6.522;2024-01-11T07:19:55;1.70;55.30
28763;DHT22;15918;51.270;6.522;2024-01-11T07:22:21;1.70;55.30
28763;DHT22;15918;51.270;6.522;2024-01-11T07:24:47;1.70;55.30
28763;DHT22;15918;51.270;6.522;2024-01-11T07:27:12;1.70;55.30
28763;DHT22;15918;51.270;6.522;2024-01-11T07:29:38;1.70;55.40
28763;DHT22;15918;51.270;6.522;2024-01-11T07:32:04;1.70;55.40
28763;DHT22;15918;51.270;6.522;2024-01-11T07:34:30;1.70;55.40
28763;DHT22;15918;51.270;6.522;2024-01-11T07:36:55;1.70;55.40
28763;DHT22;15918;51.270;6.522;2024-01-11T07:39:22;1.70;55.50
28763;DHT22;15918;51.270;6.522;2024-01-11T07:41:48;1.70;55.40
28763;DHT22;15918;51.270;6.522;2024-01-11T07:44:14;1.70;55.40
28763;DHT22;15918;51.270;6.522;2024-01-11T07:46:39;1.70;55.40
28763;DHT22;15918;51.270;6.522;2024-01-11T07:49:05;1.70;55.50
28763;DHT22;15918;51.270;6.522;2024-01-11T07:51:32;1.70;55.50
28763;DHT22;15918;51.270;6.522;2024-01-11T07:53:57;1.70;55.50
28763;DHT22;15918;51.270;6.522;2024-01-11T07:56:24;1.70;55.50
28763;DHT22;15918;51.270;6.522;2024-01-11T07:58:50;1.70;55.60
28763;DHT22;15918;51.270;6.522;2024-01-11T08:01:16;1.70;55.60
28763;DHT22;15918;51.270;6.522;2024-01-11T08:03:41;1.70;55.60
28763;DHT22;15918;51.270;6.522;2024-01-11T08:06:07;1.70;55.60
28763;DHT22;15918;51.270;6.522;2024-01-11T08:08:34;1.70;56.30
28763;DHT22;15918;51.270;6.522;2024-01-11T08:11:00;1.60;55.60
28763;DHT22;15918;51.270;6.522;2024-01-11T08:13:25;1.70;55.70
28763;DHT22;15918;51.270;6.522;2024-01-11T08:15:51;1.60;55.70
28763;DHT22;15918;51.270;6.522;2024-01-11T08:18:19;1.70;55.70
28763;DHT22;15918;51.270;6.522;2024-01-11T08:20:44;1.60;55.70
28763;DHT22;15918;51.270;6.522;2024-01-11T08:23:10;1.70;55.80
28763;DHT22;15918;51.270;6.522;2024-01-11T08:25:36;1.70;55.80
28763;DHT22;15918;51.270;6.522;2024-01-11T08:28:02;1.70;55.80
28763;DHT22;15918;51.270;6.522;2024-01-11T08:30:28;1.70;55.90
28763;DHT22;15918;51.270;6.522;2024-01-11T08:32:54;1.70;55.90
28763;DHT22;15918;51.270;6.522;2024-01-11T08:35:21;1.70;56.00
28763;DHT22;15918;51.270;6.522;2024-01-11T08:37:46;1.70;56.00
28763;DHT22;15918;51.270;6.522;2024-01-11T08:40:12;1.70;56.00
28763;DHT22;15918;51.270;6.522;2024-01-11T08:42:38;1.70;56.00
28763;DHT22;15918;51.270;6.522;2024-01-11T08:45:05;1.70;56.10
28763;DHT22;15918;51.270;6.522;2024-01-11T08:47:33;1.70;56.10
28763;DHT22;15918;51.270;6.522;2024-01-11T08:49:59;1.70;56.20
28763;DHT22;15918;51.270;6.522;2024-01-11T08:52:24;1.70;56.20
28763;DHT22;15918;51.270;6.522;2024-01-11T08:54:50;1.70;56.20
28763;DHT22;15918;51.270;6.522;2024-01-11T08:57:15;1.70;56.30
28763;DHT22;15918;51.270;6.522;2024-01-11T08:59:42;1.70;56.40
28763;DHT22;15918;51.270;6.522;2024-01-11T09:02:08;1.70;56.40
28763;DHT22;15918;51.270;6.522;2024-01-11T09:04:34;1.80;56.50
28763;DHT22;15918;51.270;6.522;2024-01-11T09:07:00;1.70;56.50
28763;DHT22;15918;51.270;6.522;2024-01-11T09:09:25;1.80;56.60
28763;DHT22;15918;51.270;6.522;2024-01-11T09:11:51;1.70;56.50
28763;DHT22;15918;51.270;6.522;2024-01-11T09:14:17;1.80;56.60
28763;DHT22;15918;51.270;6.522;2024-01-11T09:16:42;1.80;56.70
28763;DHT22;15918;51.270;6.522;2024-01-11T09:19:10;1.80;56.70
28763;DHT22;15918;51.270;6.522;2024-01-11T09:21:36;1.80;56.70
28763;DHT22;15918;51.270;6.522;2024-01-11T09:24:02;1.80;56.70
28763;DHT22;15918;51.270;6.522;2024-01-11T09:26:27;1.80;56.70
28763;DHT22;15918;51.270;6.522;2024-01-11T09:28:53;1.80;56.70
28763;DHT22;15918;51.270;6.522;2024-01-11T09:31:19;1.80;56.70
28763;DHT22;15918;51.270;6.522;2024-01-11T09:33:44;1.90;56.80
28763;DHT22;15918;51.270;6.522;2024-01-11T09:36:11;1.90;56.90
28763;DHT22;15918;51.270;6.522;2024-01-11T09:38:37;1.90;56.90
28763;DHT22;15918;51.270;6.522;2024-01-11T09:41:12;1.90;56.90
28763;DHT22;15918;51.270;6.522;2024-01-11T09:43:40;2.00;56.90
28763;DHT22;15918;51.270;6.522;2024-01-11T09:46:07;2.00;57.00
28763;DHT22;15918;51.270;6.522;2024-01-11T09:48:34;2.00;57.00
28763;DHT22;15918;51.270;6.522;2024-01-11T09:51:04;2.00;56.90
28763;DHT22;15918;51.270;6.522;2024-01-11T09:53:33;2.00;56.90
28763;DHT22;15918;51.270;6.522;2024-01-11T09:56:00;2.00;57.00
28763;DHT22;15918;51.270;6.522;2024-01-11T09:58:26;2.10;57.60
28763;DHT22;15918;51.270;6.522;2024-01-11T10:00:56;2.10;57.00
28763;DHT22;15918;51.270;6.522;2024-01-11T10:03:23;2.10;57.00
28763;DHT22;15918;51.270;6.522;2024-01-11T10:05:50;2.10;57.10
28763;DHT22;15918;51.270;6.522;2024-01-11T10:08:21;2.10;57.10
28763;DHT22;15918;51.270;6.522;2024-01-11T10:10:47;2.20;57.20
28763;DHT22;15918;51.270;6.522;2024-01-11T10:13:14;2.20;57.10
28763;DHT22;15918;51.270;6.522;2024-01-11T10:15:39;2.20;57.10
28763;DHT22;15918;51.270;6.522;2024-01-11T10:18:05;2.30;57.10
28763;DHT22;15918;51.270;6.522;2024-01-11T10:20:31;2.30;57.10
28763;DHT22;15918;51.270;6.522;2024-01-11T10:22:57;2.30;57.10
28763;DHT22;15918;51.270;6.522;2024-01-11T10:25:23;2.30;57.20
28763;DHT22;15918;51.270;6.522;2024-01-11T10:27:49;2.30;57.20
28763;DHT22;15918;51.270;6.522;2024-01-11T10:30:15;2.30;57.10
28763;DHT22;15918;51.270;6.522;2024-01-11T10:32:43;2.30;57.20
28763;DHT22;15918;51.270;6.522;2024-01-11T10:35:09;2.40;57.20
28763;DHT22;15918;51.270;6.522;2024-01-11T10:37:36;2.40;57.20
28763;DHT22;15918;51.270;6.522;2024-01-11T10:40:05;2.40;57.10
28763;DHT22;15918;51.270;6.522;2024-01-11T10:42:36;2.40;57.10
28763;DHT22;15918;51.270;6.522;2024-01-11T10:45:16;2.40;57.20
28763;DHT22;15918;51.270;6.522;2024-01-11T10:50:37;2.50;57.20
28763;DHT22;15918;51.270;6.522;2024-01-11T10:53:20;2.50;57.30
28763;DHT22;15918;51.270;6.522;2024-01-11T10:55:50;2.50;57.30
28763;DHT22;15918;51.270;6.522;2024-01-11T10:58:16;2.60;57.40
28763;DHT22;15918;51.270;6.522;2024-01-11T11:00:43;2.60;57.30
28763;DHT22;15918;51.270;6.522;2024-01-11T11:03:11;2.60;57.30
28763;DHT22;15918;51.270;6.522;2024-01-11T11:05:37;2.60;57.30
28763;DHT22;15918;51.270;6.522;2024-01-11T11:08:04;2.70;57.30
28763;DHT22;15918;51.270;6.522;2024-01-11T11:10:33;2.70;57.30
28763;DHT22;15918;51.270;6.522;2024-01-11T11:13:00;2.70;57.20
28763;DHT22;15918;51.270;6.522;2024-01-11T11:15:29;2.70;57.20
28763;DHT22;15918;51.270;6.522;2024-01-11T11:17:55;2.80;57.20
28763;DHT22;15918;51.270;6.522;2024-01-11T11:20:21;2.80;57.20
28763;DHT22;15918;51.270;6.522;2024-01-11T11:23:06;2.80;57.20
28763;DHT22;15918;51.270;6.522;2024-01-11T11:25:34;2.90;57.20
28763;DHT22;15918;51.270;6.522;2024-01-11T11:27:59;2.80;57.30
28763;DHT22;15918;51.270;6.522;2024-01-11T11:30:33;2.90;57.30
28763;DHT22;15918;51.270;6.522;2024-01-11T11:33:08;2.90;57.30
28763;DHT22;15918;51.270;6.522;2024-01-11T11:35:35;3.00;57.20
28763;DHT22;15918;51.270;6.522;2024-01-11T11:38:01;3.00;57.30
28763;DHT22;15918;51.270;6.522;2024-01-11T11:40:38;3.00;57.20
28763;DHT22;15918;51.270;6.522;2024-01-11T11:43:06;3.00;57.10
28763;DHT22;15918;51.270;6.522;2024-01-11T11:45:32;3.10;57.30
28763;DHT22;15918;51.270;6.522;2024-01-11T11:47:57;3.10;57.20
28763;DHT22;15918;51.270;6.522;2024-01-11T11:50:23;3.10;57.10
28763;DHT22;15918;51.270;6.522;2024-01-11T11:52:56;3.10;57.20
28763;DHT22;15918;51.270;6.522;2024-01-11T11:55:25;3.10;57.20
28763;DHT22;15918;51.270;6.522;2024-01-11T11:57:52;3.20;57.20
28763;DHT22;15918;51.270;6.522;2024-01-11T12:00:21;3.20;57.30
28763;DHT22;15918;51.270;6.522;2024-01-11T12:02:47;3.20;57.30
28763;DHT22;15918;51.270;6.522;2024-01-11T12:05:14;3.20;57.30
28763;DHT22;15918;51.270;6.522;2024-01-11T12:07:39;3.20;57.30
28763;DHT22;15918;51.270;6.522;2024-01-11T12:10:06;3.30;57.30
28763;DHT22;15918;51.270;6.522;2024-01-11T12:12:33;3.30;57.30
28763;DHT22;15918;51.270;6.522;2024-01-11T12:14:59;3.30;57.30
28763;DHT22;15918;51.270;6.522;2024-01-11T12:17:25;3.30;57.30
28763;DHT22;15918;51.270;6.522;2024-01-11T12:19:52;3.30;57.20
28763;DHT22;15918;51.270;6.522;2024-01-11T12:22:17;3.30;57.20
28763;DHT22;15918;51.270;6.522;2024-01-11T12:24:45;3.40;57.30
28763;DHT22;15918;51.270;6.522;2024-01-11T12:27:11;3.40;57.30
28763;DHT22;15918;51.270;6.522;2024-01-11T12:29:38;3.40;57.20
28763;DHT22;15918;51.270;6.522;2024-01-11T12:32:04;3.40;57.20
28763;DHT22;15918;51.270;6.522;2024-01-11T12:34:30;3.40;57.30
28763;DHT22;15918;51.270;6.522;2024-01-11T12:36:56;3.40;57.20
28763;DHT22;15918;51.270;6.522;2024-01-11T12:39:26;3.40;57.20
28763;DHT22;15918;51.270;6.522;2024-01-11T12:41:54;3.50;57.30
28763;DHT22;15918;51.270;6.522;2024-01-11T12:44:20;3.50;57.20
28763;DHT22;15918;51.270;6.522;2024-01-11T12:46:49;3.50;57.10
28763;DHT22;15918;51.270;6.522;2024-01-11T12:49:15;3.50;57.10
28763;DHT22;15918;51.270;6.522;2024-01-11T12:51:41;3.50;57.10
28763;DHT22;15918;51.270;6.522;2024-01-11T12:54:13;3.60;57.10
28763;DHT22;15918;51.270;6.522;2024-01-11T12:56:42;3.60;57.10
28763;DHT22;15918;51.270;6.522;2024-01-11T12:59:09;3.60;57.00
28763;DHT22;15918;51.270;6.522;2024-01-11T13:01:37;3.60;57.00
28763;DHT22;15918;51.270;6.522;2024-01-11T13:04:03;3.60;56.90
28763;DHT22;15918;51.270;6.522;2024-01-11T13:06:30;3.60;56.80
28763;DHT22;15918;51.270;6.522;2024-01-11T13:08:56;3.60;56.80
28763;DHT22;15918;51.270;6.522;2024-01-11T13:11:22;3.60;56.80
28763;DHT22;15918;51.270;6.522;2024-01-11T13:13:50;3.70;56.80
28763;DHT22;15918;51.270;6.522;2024-01-11T13:16:16;3.60;56.60
28763;DHT22;15918;51.270;6.522;2024-01-11T13:18:44;3.70;56.60
28763;DHT22;15918;51.270;6.522;2024-01-11T13:21:10;3.70;56.60
28763;DHT22;15918;51.270;6.522;2024-01-11T13:23:37;3.70;56.50
28763;DHT22;15918;51.270;6.522;2024-01-11T13:26:03;3.70;56.30
28763;DHT22;15918;51.270;6.522;2024-01-11T13:28:30;3.70;56.20
28763;DHT22;15918;51.270;6.522;2024-01-11T13:30:55;3.70;56.20
28763;DHT22;15918;51.270;6.522;2024-01-11T13:33:21;3.70;56.20
28763;DHT22;15918;51.270;6.522;2024-01-11T13:35:49;3.70;56.30
28763;DHT22;15918;51.270;6.522;2024-01-11T13:38:15;3.80;56.40
28763;DHT22;15918;51.270;6.522;2024-01-11T13:40:41;3.80;56.20
28763;DHT22;15918;51.270;6.522;2024-01-11T13:43:08;3.80;56.10
28763;DHT22;15918;51.270;6.522;2024-01-11T13:45:34;3.80;56.30
28763;DHT22;15918;51.270;6.522;2024-01-11T13:48:02;3.80;56.30
28763;DHT22;15918;51.270;6.522;2024-01-11T13:50:28;3.80;56.30
28763;DHT22;15918;51.270;6.522;2024-01-11T13:52:54;3.80;56.40
28763;DHT22;15918;51.270;6.522;2024-01-11T13:55:20;3.80;56.30
28763;DHT22;15918;51.270;6.522;2024-01-11T13:57:47;3.80;56.20
28763;DHT22;15918;51.270;6.522;2024-01-11T14:00:13;3.80;56.40
28763;DHT22;15918;51.270;6.522;2024-01-11T14:02:39;3.80;56.40
28763;DHT22;15918;51.270;6.522;2024-01-11T14:05:08;3.80;56.30
28763;DHT22;15918;51.270;6.522;2024-01-11T14:07:37;3.80;56.30
28763;DHT22;15918;51.270;6.522;2024-01-11T14:10:04;3.80;56.20
28763;DHT22;15918;51.270;6.522;2024-01-11T14:12:31;3.80;56.30
28763;DHT22;15918;51.270;6.522;2024-01-11T14:14:57;3.80;56.20
28763;DHT22;15918;51.270;6.522;2024-01-11T14:17:22;3.80;56.10
28763;DHT22;15918;51.270;6.522;2024-01-11T14:19:48;3.80;56.00
28763;DHT22;15918;51.270;6.522;2024-01-11T14:22:14;3.80;56.50
28763;DHT22;15918;51.270;6.522;2024-01-11T14:24:39;3.80;55.90
28763;DHT22;15918;51.270;6.522;2024-01-11T14:27:06;3.80;55.80
28763;DHT22;15918;51.270;6.522;2024-01-11T14:29:31;3.80;55.70
28763;DHT22;15918;51.270;6.522;2024-01-11T14:31:57;3.80;55.80
28763;DHT22;15918;51.270;6.522;2024-01-11T14:34:22;3.80;55.90
28763;DHT22;15918;51.270;6.522;2024-01-11T14:36:49;3.80;55.90
28763;DHT22;15918;51.270;6.522;2024-01-11T14:39:15;3.80;56.00
28763;DHT22;15918;51.270;6.522;2024-01-11T14:41:40;3.80;55.80
28763;DHT22;15918;51.270;6.522;2024-01-11T14:44:06;3.80;55.90
28763;DHT22;15918;51.270;6.522;2024-01-11T14:46:31;3.80;55.90
28763;DHT22;15918;51.270;6.522;2024-01-11T14:48:57;3.80;56.00
28763;DHT22;15918;51.270;6.522;2024-01-11T14:51:22;3.80;56.10
28763;DHT22;15918;51.270;6.522;2024-01-11T14:53:48;3.80;56.20
28763;DHT22;15918;51.270;6.522;2024-01-11T14:56:14;3.80;56.30
28763;DHT22;15918;51.270;6.522;2024-01-11T14:58:40;3.80;56.30
28763;DHT22;15918;51.270;6.522;2024-01-11T15:01:05;3.80;56.30
28763;DHT22;15918;51.270;6.522;2024-01-11T15:03:31;3.80;56.20
28763;DHT22;15918;51.270;6.522;2024-01-11T15:05:56;3.80;56.20
28763;DHT22;15918;51.270;6.522;2024-01-11T15:08:22;3.80;56.20
28763;DHT22;15918;51.270;6.522;2024-01-11T15:10:48;3.80;56.20
28763;DHT22;15918;51.270;6.522;2024-01-11T15:13:14;3.80;56.20
28763;DHT22;15918;51.270;6.522;2024-01-11T15:15:40;3.80;56.30
28763;DHT22;15918;51.270;6.522;2024-01-11T15:18:06;3.80;56.30
28763;DHT22;15918;51.270;6.522;2024-01-11T15:20:31;3.80;56.40
28763;DHT22;15918;51.270;6.522;2024-01-11T15:22:57;3.80;56.40
28763;DHT22;15918;51.270;6.522;2024-01-11T15:25:23;3.80;56.40
28763;DHT22;15918;51.270;6.522;2024-01-11T15:27:49;3.80;56.50
28763;DHT22;15918;51.270;6.522;2024-01-11T15:30:15;3.80;56.60
28763;DHT22;15918;51.270;6.522;2024-01-11T15:32:40;3.80;56.70
28763;DHT22;15918;51.270;6.522;2024-01-11T15:35:06;3.80;56.70
28763;DHT22;15918;51.270;6.522;2024-01-11T15:37:37;3.80;56.90
28763;DHT22;15918;51.270;6.522;2024-01-11T15:40:03;3.80;56.90
28763;DHT22;15918;51.270;6.522;2024-01-11T15:42:30;3.80;56.90